createdAt,value
2022-09-06T00:00:05.169Z,46.31
2022-09-06T00:02:33.832Z,46.36
2022-09-06T00:05:01.589Z,46.40
2022-09-06T00:07:29.441Z,46.51
2022-09-06T00:09:57.662Z,46.62
2022-09-06T00:12:25.511Z,46.74
2022-09-06T00:14:54.551Z,46.75
2022-09-06T00:17:22.283Z,46.77
2022-09-06T00:19:49.999Z,46.79
2022-09-06T00:22:17.765Z,46.69
2022-09-06T00:24:45.465Z,46.77
2022-09-06T00:27:13.200Z,46.53
2022-09-06T00:29:40.898Z,46.68
2022-09-06T00:32:10.084Z,46.84
2022-09-06T00:34:37.787Z,46.66
2022-09-06T00:37:05.567Z,46.67
2022-09-06T00:39:33.374Z,46.81
2022-09-06T00:42:01.139Z,46.87
2022-09-06T00:44:28.939Z,46.93
2022-09-06T00:46:56.660Z,46.50
2022-09-06T00:49:26.530Z,46.97
2022-09-06T00:51:54.876Z,46.74
2022-09-06T00:54:22.579Z,46.66
2022-09-06T00:56:50.325Z,46.64
2022-09-06T00:59:18.045Z,46.94
2022-09-06T01:01:45.834Z,47.01
2022-09-06T01:04:13.595Z,47.13
2022-09-06T01:06:49.140Z,46.85
2022-09-06T01:09:24.364Z,46.87
2022-09-06T01:11:58.345Z,46.82
2022-09-06T01:14:34.861Z,46.91
2022-09-06T01:17:07.714Z,46.98
2022-09-06T01:19:52.458Z,46.82
2022-09-06T01:22:30.809Z,46.89
2022-09-06T01:25:02.826Z,47.18
2022-09-06T01:27:47.261Z,46.98
2022-09-06T01:30:15.422Z,46.77
2022-09-06T01:32:46.511Z,47.04
2022-09-06T01:35:17.692Z,47.15
2022-09-06T01:37:45.472Z,47.00
2022-09-06T01:40:13.341Z,47.15
2022-09-06T01:42:42.444Z,47.23
2022-09-06T01:45:11.513Z,46.88
2022-09-06T01:47:41.471Z,47.27
2022-09-06T01:50:26.035Z,47.21
2022-09-06T01:52:59.741Z,47.44
2022-09-06T01:55:30.896Z,46.99
2022-09-06T01:58:13.774Z,46.92
2022-09-06T02:00:43.347Z,47.15
2022-09-06T02:03:14.326Z,47.34
2022-09-06T02:05:43.407Z,47.33
2022-09-06T02:08:12.781Z,47.41
2022-09-06T02:10:42.440Z,47.49
2022-09-06T02:13:11.526Z,47.11
2022-09-06T02:15:40.450Z,47.03
2022-09-06T02:18:10.895Z,47.24
2022-09-06T02:20:41.612Z,47.36
2022-09-06T02:23:09.443Z,47.20
2022-09-06T02:25:39.500Z,47.16
2022-09-06T02:28:07.300Z,47.16
2022-09-06T02:30:37.561Z,46.96
2022-09-06T02:33:08.011Z,47.20
2022-09-06T02:35:43.473Z,46.93
2022-09-06T02:38:11.247Z,47.45
2022-09-06T02:40:39.110Z,47.31
2022-09-06T02:43:06.912Z,47.21
2022-09-06T02:45:35.993Z,47.52
2022-09-06T02:48:04.073Z,47.49
2022-09-06T02:50:31.879Z,47.40
2022-09-06T02:53:04.309Z,47.59
2022-09-06T02:55:32.094Z,47.47
2022-09-06T02:57:59.823Z,47.42
2022-09-06T03:00:27.637Z,47.40
2022-09-06T03:02:56.849Z,47.24
2022-09-06T03:05:24.568Z,47.22
2022-09-06T03:07:52.342Z,47.33
2022-09-06T03:10:20.052Z,47.54
2022-09-06T03:12:47.858Z,46.98
2022-09-06T03:15:16.224Z,47.33
2022-09-06T03:17:44.043Z,47.35
2022-09-06T03:20:14.000Z,47.44
2022-09-06T03:22:41.629Z,47.20
2022-09-06T03:25:10.364Z,47.42
2022-09-06T03:27:38.116Z,47.18
2022-09-06T03:30:07.108Z,47.44
2022-09-06T03:32:34.906Z,47.55
2022-09-06T03:35:02.626Z,47.24
2022-09-06T03:37:31.700Z,47.45
2022-09-06T03:39:59.886Z,47.46
2022-09-06T03:42:28.144Z,47.57
2022-09-06T03:44:55.898Z,47.49
2022-09-06T03:47:23.622Z,47.65
2022-09-06T03:49:51.514Z,47.70
2022-09-06T03:52:19.293Z,47.43
2022-09-06T03:54:48.327Z,47.65
2022-09-06T03:57:16.112Z,47.31
2022-09-06T03:59:43.837Z,47.80
2022-09-06T04:02:11.676Z,47.55
2022-09-06T04:04:39.406Z,47.75
2022-09-06T04:07:07.175Z,47.61
2022-09-06T04:09:34.904Z,47.60
2022-09-06T04:12:04.570Z,47.71
2022-09-06T04:14:32.280Z,47.61
2022-09-06T04:17:00.074Z,47.85
2022-09-06T04:19:27.849Z,47.77
2022-09-06T04:21:55.598Z,47.42
2022-09-06T04:24:23.279Z,47.79
2022-09-06T04:26:51.009Z,47.75
2022-09-06T04:29:20.045Z,47.54
2022-09-06T04:31:47.827Z,47.75
2022-09-06T04:34:16.429Z,47.83
2022-09-06T04:36:48.182Z,47.95
2022-09-06T04:39:16.211Z,47.66
2022-09-06T04:41:44.137Z,48.08
2022-09-06T04:44:11.869Z,47.71
2022-09-06T04:46:42.123Z,47.80
2022-09-06T04:49:09.839Z,47.67
2022-09-06T04:51:39.483Z,47.95
2022-09-06T04:54:07.317Z,47.88
2022-09-06T04:56:35.030Z,48.23
2022-09-06T04:59:03.088Z,48.17
2022-09-06T05:01:30.845Z,48.11
2022-09-06T05:03:59.914Z,48.11
2022-09-06T05:06:27.664Z,48.12
2022-09-06T05:08:55.388Z,47.88
2022-09-06T05:11:23.116Z,48.38
2022-09-06T05:13:51.223Z,47.93
2022-09-06T05:16:19.006Z,48.29
2022-09-06T05:18:46.796Z,47.99
2022-09-06T05:21:15.894Z,47.99
2022-09-06T05:23:43.827Z,48.28
2022-09-06T05:26:11.548Z,48.64
2022-09-06T05:28:39.274Z,48.73
2022-09-06T05:31:08.348Z,48.91
2022-09-06T05:33:36.113Z,49.62
2022-09-06T05:36:04.159Z,50.31
2022-09-06T05:38:33.485Z,50.52
2022-09-06T05:41:01.332Z,51.36
2022-09-06T05:43:29.079Z,52.12
2022-09-06T05:45:56.797Z,52.85
2022-09-06T05:48:24.573Z,53.32
2022-09-06T05:51:00.992Z,52.99
2022-09-06T05:53:28.741Z,52.89
2022-09-06T05:55:57.778Z,52.53
2022-09-06T05:58:25.636Z,52.67
2022-09-06T06:00:53.759Z,52.67
2022-09-06T06:03:21.543Z,52.35
2022-09-06T06:05:49.260Z,52.43
2022-09-06T06:08:16.976Z,52.72
2022-09-06T06:10:44.680Z,52.42
2022-09-06T06:13:13.741Z,52.23
2022-09-06T06:15:41.516Z,52.11
2022-09-06T06:18:09.258Z,52.39
2022-09-06T06:20:36.958Z,52.29
2022-09-06T06:23:04.810Z,51.93
2022-09-06T06:25:32.522Z,51.99
2022-09-06T06:28:00.239Z,52.51
2022-09-06T06:30:29.284Z,52.31
2022-09-06T06:32:58.478Z,52.38
2022-09-06T06:35:26.300Z,52.64
2022-09-06T06:37:54.036Z,52.66
2022-09-06T06:40:22.109Z,52.65
2022-09-06T06:42:49.848Z,52.68
2022-09-06T06:45:18.684Z,52.56
2022-09-06T06:47:50.768Z,52.41
2022-09-06T06:50:18.484Z,52.72
2022-09-06T06:52:46.207Z,52.57
2022-09-06T06:55:13.904Z,52.96
2022-09-06T06:57:41.636Z,52.71
2022-09-06T07:00:11.019Z,52.74
2022-09-06T07:02:38.755Z,53.31
2022-09-06T07:07:56.311Z,53.35
2022-09-06T07:12:59.860Z,53.55
2022-09-06T07:15:27.661Z,53.57
2022-09-06T07:17:56.051Z,53.32
2022-09-06T07:20:26.312Z,53.10
2022-09-06T07:25:48.691Z,53.11
2022-09-06T07:28:16.423Z,52.98
2022-09-06T07:30:44.231Z,52.68
2022-09-06T07:33:11.964Z,52.77
2022-09-06T07:35:41.701Z,52.49
2022-09-06T07:38:09.451Z,52.63
2022-09-06T07:40:37.167Z,52.79
2022-09-06T07:43:04.905Z,53.45
2022-09-06T07:45:35.904Z,54.94
2022-09-06T07:48:03.961Z,54.92
2022-09-06T07:50:48.829Z,55.00
2022-09-06T07:53:26.235Z,54.49
2022-09-06T07:55:58.122Z,54.15
2022-09-06T07:58:25.843Z,53.88
2022-09-06T08:00:53.568Z,53.34
2022-09-06T08:03:21.357Z,53.00
2022-09-06T08:11:29.107Z,52.49
2022-09-06T08:13:57.366Z,52.22
2022-09-06T08:16:26.186Z,52.23
2022-09-06T08:18:54.699Z,51.91
2022-09-06T08:21:23.628Z,51.71
2022-09-06T08:23:53.388Z,51.70
2022-09-06T08:26:22.423Z,51.83
2022-09-06T08:28:53.524Z,51.72
2022-09-06T08:31:21.340Z,51.13
2022-09-06T08:33:49.062Z,51.28
2022-09-06T08:36:16.807Z,51.11
2022-09-06T08:38:44.766Z,50.82
2022-09-06T08:41:21.294Z,51.16
2022-09-06T08:43:50.559Z,50.62
2022-09-06T08:46:18.434Z,50.54
2022-09-06T08:48:46.195Z,50.51
2022-09-06T08:51:43.710Z,50.08
2022-09-06T08:54:13.483Z,50.23
2022-09-06T08:56:46.836Z,49.50
2022-09-06T08:59:17.577Z,49.90
2022-09-06T09:01:48.337Z,49.77
2022-09-06T09:04:17.581Z,50.01
2022-09-06T09:06:45.500Z,49.69
2022-09-06T09:09:14.890Z,49.49
2022-09-06T09:11:44.946Z,49.40
2022-09-06T09:14:15.586Z,49.10
2022-09-06T09:16:43.685Z,49.25
2022-09-06T09:19:11.450Z,48.58
2022-09-06T09:21:40.098Z,47.89
2022-09-06T09:24:08.923Z,47.87
2022-09-06T09:26:39.582Z,47.82
2022-09-06T09:29:10.061Z,47.83
2022-09-06T09:31:42.533Z,47.43
2022-09-06T09:34:13.619Z,47.37
2022-09-06T09:36:41.461Z,47.33
2022-09-06T09:39:12.399Z,46.82
2022-09-06T09:41:41.644Z,47.01
2022-09-06T09:44:11.706Z,46.76
2022-09-06T09:46:39.922Z,46.79
2022-09-06T09:49:09.462Z,46.54
2022-09-06T09:51:37.963Z,46.59
2022-09-06T09:54:07.228Z,46.47
2022-09-06T09:56:43.529Z,46.66
2022-09-06T09:59:21.135Z,46.91
2022-09-06T10:01:48.867Z,46.89
2022-09-06T10:07:12.112Z,47.20
2022-09-06T10:09:40.864Z,47.06
2022-09-06T10:12:08.661Z,47.37
2022-09-06T10:14:45.942Z,47.42
2022-09-06T10:17:20.190Z,46.85
2022-09-06T10:19:48.778Z,46.92
2022-09-06T10:22:23.822Z,47.19
2022-09-06T10:25:01.929Z,47.22
2022-09-06T10:27:31.066Z,47.11
2022-09-06T10:30:02.903Z,47.31
2022-09-06T10:32:37.421Z,47.15
2022-09-06T10:35:11.029Z,47.37
2022-09-06T10:37:47.182Z,47.40
2022-09-06T10:40:20.605Z,47.28
2022-09-06T10:42:49.277Z,46.99
2022-09-06T10:45:39.192Z,46.86
2022-09-06T10:48:13.951Z,46.90
2022-09-06T10:50:45.329Z,46.83
2022-09-06T10:53:25.896Z,47.00
2022-09-06T10:56:01.313Z,47.10
2022-09-06T11:01:25.357Z,47.03
2022-09-06T11:03:55.592Z,47.21
2022-09-06T11:06:28.190Z,47.16
2022-09-06T11:08:58.620Z,47.26
2022-09-06T11:11:27.951Z,47.35
2022-09-06T11:13:55.664Z,47.04
2022-09-06T11:16:26.903Z,46.87
2022-09-06T11:18:57.441Z,47.00
2022-09-06T11:21:49.217Z,47.04
2022-09-06T11:24:17.796Z,46.77
2022-09-06T11:26:45.821Z,46.58
2022-09-06T11:29:19.817Z,46.69
2022-09-06T11:34:45.867Z,46.85
2022-09-06T11:37:26.422Z,46.59
2022-09-06T11:43:19.667Z,46.73
2022-09-06T11:45:49.664Z,47.15
2022-09-06T11:48:50.756Z,47.03
2022-09-06T11:51:33.307Z,46.80
2022-09-06T11:54:05.089Z,46.92
2022-09-06T11:56:33.732Z,46.68
2022-09-06T11:59:04.084Z,46.78
2022-09-06T12:01:39.457Z,46.77
2022-09-06T12:04:10.565Z,46.94
2022-09-06T12:06:40.974Z,46.52
2022-09-06T12:09:31.260Z,46.45
2022-09-06T12:11:59.500Z,46.48
2022-09-06T12:14:32.291Z,46.31
2022-09-06T12:17:27.552Z,46.37
2022-09-06T12:20:06.720Z,46.55
2022-09-06T12:22:54.353Z,46.36
2022-09-06T12:25:56.021Z,46.60
2022-09-06T12:28:33.310Z,46.57
2022-09-06T12:31:01.076Z,46.47
2022-09-06T12:33:31.632Z,46.49
2022-09-06T12:36:16.960Z,46.12
2022-09-06T12:38:55.403Z,46.04
2022-09-06T12:41:23.127Z,45.94
2022-09-06T12:43:50.924Z,46.19
2022-09-06T12:46:18.690Z,46.12
2022-09-06T12:49:00.019Z,46.26
2022-09-06T12:51:29.151Z,46.25
2022-09-06T12:53:58.855Z,46.43
2022-09-06T12:56:27.938Z,46.53
2022-09-06T12:59:17.228Z,46.43
2022-09-06T13:01:49.218Z,46.25
2022-09-06T13:04:21.382Z,46.13
2022-09-06T13:06:50.432Z,46.07
2022-09-06T13:09:19.451Z,46.41
2022-09-06T13:11:48.634Z,45.85
2022-09-06T13:14:19.404Z,46.04
2022-09-06T13:16:48.251Z,45.89
2022-09-06T13:19:17.587Z,45.41
2022-09-06T13:21:46.234Z,45.31
2022-09-06T13:24:22.079Z,45.49
2022-09-06T13:26:50.015Z,45.70
2022-09-06T13:29:24.499Z,45.69
2022-09-06T13:31:52.888Z,45.33
2022-09-06T13:34:24.075Z,45.41
2022-09-06T13:36:52.457Z,45.22
2022-09-06T13:39:34.999Z,45.47
2022-09-06T13:42:04.470Z,45.64
2022-09-06T13:44:32.648Z,45.46
2022-09-06T13:47:00.468Z,45.23
2022-09-06T13:49:28.462Z,45.39
2022-09-06T13:51:58.022Z,45.32
2022-09-06T13:54:26.734Z,45.08
2022-09-06T13:56:56.096Z,45.07
2022-09-06T13:59:24.734Z,44.72
2022-09-06T14:01:57.554Z,45.10
2022-09-06T14:04:25.578Z,45.20
2022-09-06T14:06:54.087Z,44.63
2022-09-06T14:09:21.872Z,44.69
2022-09-06T14:11:49.578Z,43.90
2022-09-06T14:14:18.701Z,44.43
2022-09-06T14:16:47.612Z,44.20
2022-09-06T14:19:15.632Z,44.15
2022-09-06T14:21:43.353Z,44.39
2022-09-06T14:24:11.098Z,44.42
2022-09-06T14:26:39.438Z,44.12
2022-09-06T14:29:08.156Z,44.42
2022-09-06T14:31:38.909Z,44.27
2022-09-06T14:34:06.618Z,44.49
2022-09-06T14:36:34.816Z,44.25
2022-09-06T14:39:02.791Z,44.26
2022-09-06T14:41:30.504Z,43.90
2022-09-06T14:43:58.555Z,44.41
2022-09-06T14:46:26.923Z,44.11
2022-09-06T14:49:00.104Z,43.99
2022-09-06T14:51:27.977Z,44.27
2022-09-06T14:53:57.137Z,44.31
2022-09-06T14:56:25.997Z,44.05
2022-09-06T14:58:54.758Z,44.22
2022-09-06T15:01:23.256Z,44.15
2022-09-06T15:03:52.555Z,43.57
2022-09-06T15:06:22.062Z,43.74
2022-09-06T15:08:49.981Z,44.05
2022-09-06T15:11:30.147Z,44.06
2022-09-06T15:13:58.024Z,43.90
2022-09-06T15:16:25.716Z,44.15
2022-09-06T15:18:55.040Z,43.70
2022-09-06T15:21:24.175Z,43.63
2022-09-06T15:23:52.348Z,44.01
2022-09-06T15:26:20.091Z,43.99
2022-09-06T15:28:47.903Z,43.68
2022-09-06T15:31:15.788Z,43.37
2022-09-06T15:33:43.570Z,43.95
2022-09-06T15:36:11.355Z,43.84
2022-09-06T15:38:41.888Z,43.28
2022-09-06T15:41:10.502Z,43.75
2022-09-06T15:43:40.658Z,43.70
2022-09-06T15:46:08.441Z,43.72
2022-09-06T15:48:43.038Z,43.88
2022-09-06T15:51:11.050Z,43.53
2022-09-06T15:53:40.133Z,43.44
2022-09-06T15:56:08.348Z,43.62
2022-09-06T15:58:36.113Z,43.42
2022-09-06T16:01:06.344Z,43.78
2022-09-06T16:03:36.133Z,43.76
2022-09-06T16:08:23.672Z,43.31
2022-09-06T16:10:52.738Z,43.33
2022-09-06T16:13:20.463Z,43.26
2022-09-06T16:15:57.073Z,43.59
2022-09-06T16:18:25.029Z,43.62
2022-09-06T16:20:52.908Z,42.97
2022-09-06T16:23:20.718Z,43.06
2022-09-06T16:25:49.644Z,43.16
2022-09-06T16:28:18.799Z,43.53
2022-09-06T16:30:46.803Z,43.06
2022-09-06T16:33:14.691Z,43.05
2022-09-06T16:35:42.430Z,43.14
2022-09-06T16:38:10.174Z,43.53
2022-09-06T16:40:37.944Z,43.11
2022-09-06T16:43:05.885Z,43.12
2022-09-06T16:45:35.063Z,42.77
2022-09-06T16:48:05.091Z,43.50
2022-09-06T16:50:35.008Z,43.08
2022-09-06T16:53:03.613Z,43.15
2022-09-06T16:55:32.466Z,43.04
2022-09-06T16:58:00.330Z,42.95
2022-09-06T17:00:28.058Z,43.01
2022-09-06T17:02:57.273Z,43.19
2022-09-06T17:05:25.169Z,43.03
2022-09-06T17:07:53.908Z,43.18
2022-09-06T17:10:21.623Z,43.13
2022-09-06T17:12:49.526Z,43.20
2022-09-06T17:15:17.498Z,43.55
2022-09-06T17:17:44.338Z,43.21
2022-09-06T17:20:13.469Z,43.32
2022-09-06T17:22:41.261Z,43.38
2022-09-06T17:25:09.203Z,43.09
2022-09-06T17:27:36.934Z,43.26
2022-09-06T17:30:05.270Z,43.28
2022-09-06T17:32:33.302Z,43.57
2022-09-06T17:35:01.477Z,43.47
2022-09-06T17:37:32.715Z,43.47
2022-09-06T17:40:01.118Z,43.91
2022-09-06T17:42:30.596Z,43.93
2022-09-06T17:44:58.382Z,43.89
2022-09-06T17:47:26.093Z,44.15
2022-09-06T17:49:53.818Z,44.10
2022-09-06T17:52:21.541Z,44.03
2022-09-06T17:54:50.652Z,44.06
2022-09-06T17:57:18.459Z,43.94
2022-09-06T17:59:46.234Z,44.08
2022-09-06T18:02:13.918Z,44.07
2022-09-06T18:04:41.692Z,44.42
2022-09-06T18:07:09.456Z,44.33
2022-09-06T18:09:37.709Z,44.51
2022-09-06T18:12:06.989Z,44.44
2022-09-06T18:14:34.800Z,44.32
2022-09-06T18:17:02.627Z,44.38
2022-09-06T18:19:30.621Z,44.59
2022-09-06T18:21:58.338Z,44.54
2022-09-06T18:24:26.108Z,44.61
2022-09-06T18:26:53.846Z,44.62
2022-09-06T18:29:23.216Z,44.82
2022-09-06T18:31:53.660Z,44.77
2022-09-06T18:34:21.642Z,44.58
2022-09-06T18:36:49.493Z,44.82
2022-09-06T18:39:19.038Z,44.83
2022-09-06T18:42:01.946Z,44.80
2022-09-06T18:44:33.067Z,44.88
2022-09-06T18:47:02.259Z,45.02
2022-09-06T18:49:30.577Z,44.89
2022-09-06T18:51:58.354Z,44.91
2022-09-06T18:54:26.236Z,44.82
2022-09-06T18:56:54.071Z,45.07
2022-09-06T18:59:21.859Z,44.99
2022-09-06T19:01:51.994Z,45.04
2022-09-06T19:04:20.073Z,45.01
2022-09-06T19:06:47.896Z,45.43
2022-09-06T19:09:16.534Z,45.30
2022-09-06T19:11:49.184Z,45.41
2022-09-06T19:14:17.100Z,45.28
2022-09-06T19:16:45.489Z,45.37
2022-09-06T19:19:14.639Z,45.50
2022-09-06T19:21:42.856Z,45.37
2022-09-06T19:24:11.351Z,45.68
2022-09-06T19:26:39.785Z,45.50
2022-09-06T19:29:08.925Z,45.80
2022-09-06T19:31:37.497Z,45.69
2022-09-06T19:34:05.350Z,45.49
2022-09-06T19:36:34.817Z,45.56
2022-09-06T19:39:04.723Z,45.62
2022-09-06T19:41:34.051Z,45.60
2022-09-06T19:44:03.662Z,45.77
2022-09-06T19:46:31.492Z,45.72
2022-09-06T19:49:00.568Z,45.76
2022-09-06T19:51:28.478Z,45.82
2022-09-06T19:53:58.384Z,45.90
2022-09-06T19:56:26.351Z,46.04
2022-09-06T19:58:55.311Z,45.97
2022-09-06T20:01:23.263Z,45.87
2022-09-06T20:03:51.107Z,45.98
2022-09-06T20:06:18.877Z,45.91
2022-09-06T20:08:50.244Z,45.84
2022-09-06T20:11:19.802Z,45.99
2022-09-06T20:13:47.628Z,46.05
2022-09-06T20:16:15.733Z,46.27
2022-09-06T20:18:43.576Z,46.10
2022-09-06T20:21:13.811Z,46.15
2022-09-06T20:23:42.260Z,46.12
2022-09-06T20:26:10.886Z,46.00
2022-09-06T20:28:39.951Z,46.19
2022-09-06T20:31:08.792Z,46.15
2022-09-06T20:33:36.638Z,46.03
2022-09-06T20:36:05.296Z,46.27
2022-09-06T20:38:33.919Z,46.14
2022-09-06T20:41:02.864Z,46.31
2022-09-06T20:43:31.576Z,46.27
2022-09-06T20:46:00.655Z,46.28
2022-09-06T20:48:28.532Z,46.18
2022-09-06T20:51:00.251Z,46.27
2022-09-06T20:53:28.052Z,46.48
2022-09-06T20:55:59.605Z,46.34
2022-09-06T20:58:27.636Z,46.24
2022-09-06T21:00:55.606Z,46.37
2022-09-06T21:03:24.856Z,46.28
2022-09-06T21:05:52.578Z,46.55
2022-09-06T21:08:20.718Z,46.29
2022-09-06T21:10:48.990Z,46.45
2022-09-06T21:13:16.850Z,46.47
2022-09-06T21:15:44.617Z,46.52
2022-09-06T21:18:12.974Z,46.36
2022-09-06T21:20:42.044Z,46.46
2022-09-06T21:23:09.741Z,46.34
2022-09-06T21:25:37.468Z,46.60
2022-09-06T21:28:05.182Z,46.51
2022-09-06T21:30:33.052Z,46.42
2022-09-06T21:33:00.832Z,46.52
2022-09-06T21:35:28.613Z,46.43
2022-09-06T21:37:57.685Z,46.30
2022-09-06T21:40:25.460Z,46.52
2022-09-06T21:42:53.196Z,46.39
2022-09-06T21:45:20.941Z,46.26
2022-09-06T21:47:48.684Z,46.46
2022-09-06T21:50:16.640Z,46.43
2022-09-06T21:52:44.372Z,46.58
2022-09-06T21:55:15.573Z,46.59
2022-09-06T21:57:43.470Z,46.64
2022-09-06T22:00:12.369Z,46.67
2022-09-06T22:02:40.381Z,46.72
2022-09-06T22:05:08.754Z,46.60
2022-09-06T22:07:36.947Z,46.68
2022-09-06T22:10:05.200Z,46.54
2022-09-06T22:12:34.437Z,46.60
2022-09-06T22:15:02.203Z,46.62
2022-09-06T22:17:29.934Z,46.69
2022-09-06T22:19:57.816Z,46.63
2022-09-06T22:22:27.190Z,46.81
2022-09-06T22:24:54.925Z,46.64
2022-09-06T22:27:23.425Z,46.72
2022-09-06T22:29:52.500Z,46.65
2022-09-06T22:32:21.237Z,46.69
2022-09-06T22:34:48.989Z,46.79
2022-09-06T22:37:16.718Z,46.73
2022-09-06T22:39:44.550Z,46.80
2022-09-06T22:42:12.286Z,46.86
2022-09-06T22:44:40.613Z,46.83
2022-09-06T22:47:09.660Z,46.89
2022-09-06T22:49:37.399Z,46.86
2022-09-06T22:52:05.101Z,46.81
2022-09-06T22:54:33.102Z,46.78
2022-09-06T22:57:00.828Z,46.81
2022-09-06T22:59:28.562Z,46.71
2022-09-06T23:01:56.283Z,46.92
2022-09-06T23:04:25.437Z,46.87
2022-09-06T23:06:53.185Z,46.80
2022-09-06T23:09:20.961Z,46.79
2022-09-06T23:11:48.681Z,46.87
2022-09-06T23:14:16.519Z,47.03
2022-09-06T23:16:44.233Z,46.82
2022-09-06T23:19:11.959Z,47.14
2022-09-06T23:21:41.058Z,46.93
2022-09-06T23:24:08.770Z,47.01
2022-09-06T23:26:36.995Z,46.82
2022-09-06T23:29:04.727Z,46.94
2022-09-06T23:31:32.705Z,47.16
2022-09-06T23:34:01.200Z,46.92
2022-09-06T23:36:29.017Z,46.98
2022-09-06T23:38:58.183Z,47.02
2022-09-06T23:41:25.942Z,47.17
2022-09-06T23:43:53.661Z,47.04
2022-09-06T23:46:21.526Z,47.11
2022-09-06T23:48:49.266Z,46.96
2022-09-06T23:51:16.994Z,47.00
2022-09-06T23:53:45.361Z,47.08
2022-09-06T23:56:14.436Z,46.98
2022-09-06T23:58:42.127Z,47.07
